aviador You're here:

KISM Decoded Metar

KISSIMMEE/ORLAND in FL, USA
Report Time2017-12-15 18:56:00
UTC Time2017-12-15 19:47:55
Flight Rules vfr VFR
Wind240° at 07 kt
W.Decomp.*RWY 24: 7.0 kt HW 0.6 kt RCW
RWY 33: 0.6 kt HW 7 kt LCW
W.Rank240° ranks 26
Current wind is below 240° avg. (7.4)
Visibility9999 m
Phenomena:N/A
Clouds:Overcast 038 Hf
Expected CloudBase > 3,600 ft AGL from Temp-Dew spread
Ceiling3,800 ft
Temp24°C (ISA +9)
Dew Point15°C (57% RH)
AAT23.1°C
QNH1018 hPa
Density Alt1,204 ft
Elevation82 ft
Report Wrong Elevation
Raw Report
METAR KISM 151856Z 24007KT 10SM OVC038 24/15 A3006 RMK AO2 SLP180 T02440150=

Extra information for KISM:More info

Metar Taf Metar & Taf Last 4 Metars F.Rules Stats Wind Profile Meteogram Temp Stats Airport Information Weather charts Add Link Nearby VenuesMetar ALERT Operation Metar Decoded Social comments

AIRNAV info for KISM